Time;durP1;ratioP1;P1;durP2;ratioP2;P2;SDS_P1;SDS_P2;PMS_P1;PMS_P2;Temp;Humidity;BMP_temperature;BMP_pressure;BME280_temperature;BME280_humidity;BME280_pressure;Samples;Min_cycle;Max_cycle;Signal;HPM_P1;HPM_P2
2022/05/16 00:01:08;;;;;;;4.47;2.55;;;12.10;85.00;;;;;;5055237;28;20115;-87
2022/05/16 00:03:34;;;;;;;5.10;3.17;;;12.00;85.50;;;;;;5055041;28;20029;-87
2022/05/16 00:05:59;;;;;;;5.97;3.70;;;12.00;85.30;;;;;;5054841;28;20031;-87
2022/05/16 00:08:25;;;;;;;8.10;3.53;;;11.90;86.00;;;;;;5056132;28;20075;-87
2022/05/16 00:10:52;;;;;;;7.15;3.33;;;11.90;86.70;;;;;;5054974;28;20071;-87
2022/05/16 00:13:18;;;;;;;5.70;3.22;;;11.90;87.10;;;;;;5055090;28;20395;-87
2022/05/16 00:15:44;;;;;;;5.50;3.30;;;11.90;87.40;;;;;;5054922;28;20040;-88
2022/05/16 00:18:09;;;;;;;5.22;2.90;;;11.90;87.30;;;;;;5055324;28;20072;-90
2022/05/16 00:20:35;;;;;;;5.78;2.63;;;11.90;88.20;;;;;;5056405;28;20029;-87
2022/05/16 00:23:01;;;;;;;5.63;2.58;;;11.90;88.80;;;;;;5056020;28;20056;-87
2022/05/16 00:25:27;;;;;;;4.03;2.22;;;11.90;89.00;;;;;;5054888;28;20032;-89
2022/05/16 00:27:53;;;;;;;3.65;2.40;;;11.80;89.50;;;;;;5055892;28;20107;-89
2022/05/16 00:30:20;;;;;;;3.28;2.35;;;11.70;89.30;;;;;;5054995;28;20017;-88
2022/05/16 00:32:50;;;;;;;10.15;2.17;;;11.70;89.90;;;;;;5054843;28;20059;-88
2022/05/16 00:35:18;;;;;;;2.70;2.28;;;11.60;89.90;;;;;;5055830;28;20076;-88
2022/05/16 00:37:44;;;;;;;5.88;2.35;;;11.60;90.00;;;;;;5054437;28;20047;-89
2022/05/16 00:40:11;;;;;;;5.43;2.72;;;11.60;90.20;;;;;;5055909;28;20033;-89
2022/05/16 00:42:38;;;;;;;6.00;2.25;;;11.60;90.30;;;;;;5055601;28;20025;-87
2022/05/16 00:45:07;;;;;;;7.80;2.40;;;11.50;90.70;;;;;;5054462;28;20024;-88
2022/05/16 00:47:32;;;;;;;5.70;2.28;;;11.40;90.90;;;;;;5054468;28;20047;-88
2022/05/16 00:50:00;;;;;;;5.68;2.63;;;11.40;91.00;;;;;;5055814;28;20502;-89
2022/05/16 00:52:32;;;;;;;4.22;2.10;;;11.30;91.20;;;;;;5055476;28;20021;-88
2022/05/16 00:55:01;;;;;;;3.25;1.95;;;11.30;91.30;;;;;;5055412;28;20032;-89
2022/05/16 00:57:34;;;;;;;3.95;2.75;;;11.30;91.50;;;;;;5054287;28;20029;-89
2022/05/16 01:00:20;;;;;;;3.25;2.33;;;11.20;92.00;;;;;;5054190;28;20025;-86
2022/05/16 01:05:39;;;;;;;4.70;2.50;;;11.10;92.10;;;;;;5055708;28;20036;-88
2022/05/16 01:08:14;;;;;;;4.93;2.47;;;11.00;92.40;;;;;;5053962;28;20403;-89
2022/05/16 01:10:40;;;;;;;5.70;2.53;;;11.00;92.30;;;;;;5053938;28;20028;-89
2022/05/16 01:13:07;;;;;;;5.68;2.72;;;10.90;92.50;;;;;;5054169;28;20044;-89
2022/05/16 01:15:34;;;;;;;5.40;2.80;;;10.80;92.50;;;;;;5054992;28;20025;-89
2022/05/16 01:18:00;;;;;;;6.90;2.50;;;10.80;92.60;;;;;;5053911;28;20533;-89
2022/05/16 01:21:03;;;;;;;4.82;2.50;;;10.70;92.50;;;;;;5053784;28;20025;-89
2022/05/16 01:23:33;;;;;;;4.13;2.40;;;10.70;92.80;;;;;;5053728;28;20028;-88
2022/05/16 01:26:04;;;;;;;3.78;2.17;;;10.60;93.10;;;;;;5054776;28;20107;-87
2022/05/16 01:31:34;;;;;;;3.95;2.40;;;10.50;94.00;;;;;;5054166;28;19954;-89
2022/05/16 01:34:00;;;;;;;2.20;2.00;;;10.40;93.50;;;;;;5055008;28;20074;-89
2022/05/16 01:36:26;;;;;;;5.32;2.97;;;10.40;93.60;;;;;;5053439;28;20399;-89
2022/05/16 01:38:53;;;;;;;5.90;2.40;;;10.40;93.60;;;;;;5053626;28;20021;-89
2022/05/16 01:41:22;;;;;;;5.53;2.63;;;10.30;94.10;;;;;;5053374;28;20506;-89
2022/05/16 01:43:55;;;;;;;4.73;2.43;;;10.30;94.50;;;;;;5054599;28;20541;-89
2022/05/16 01:46:33;;;;;;;5.88;2.25;;;10.20;95.00;;;;;;5053352;28;20039;-89
2022/05/16 01:48:59;;;;;;;3.13;2.35;;;10.20;94.70;;;;;;5053532;28;20029;-88
2022/05/16 01:51:25;;;;;;;3.85;2.55;;;10.10;94.70;;;;;;5054378;28;20021;-89
2022/05/16 01:53:51;;;;;;;4.20;2.40;;;10.10;95.40;;;;;;5053385;28;20475;-91
2022/05/16 01:56:17;;;;;;;5.57;2.47;;;10.10;95.70;;;;;;5053242;28;20024;-88
2022/05/16 01:58:44;;;;;;;5.85;2.70;;;10.10;95.60;;;;;;5053335;28;20146;-88
2022/05/16 02:01:11;;;;;;;3.55;1.92;;;10.00;96.00;;;;;;5053282;28;20047;-88
2022/05/16 02:03:39;;;;;;;6.45;2.60;;;10.00;96.00;;;;;;5053353;28;20021;-88
2022/05/16 02:06:05;;;;;;;8.15;2.70;;;10.00;96.50;;;;;;5053411;28;20021;-89
2022/05/16 02:08:31;;;;;;;3.80;2.55;;;9.90;96.80;;;;;;5053139;28;20048;-90
2022/05/16 02:10:57;;;;;;;4.93;2.40;;;9.90;97.00;;;;;;5054220;28;20483;-89
2022/05/16 02:13:22;;;;;;;3.58;2.40;;;9.80;97.20;;;;;;5053114;28;20028;-89
2022/05/16 02:15:48;;;;;;;6.30;2.55;;;9.80;97.30;;;;;;5053085;28;20464;-88
2022/05/16 02:18:14;;;;;;;4.97;2.20;;;9.80;98.20;;;;;;5052992;28;20025;-89
2022/05/16 02:20:40;;;;;;;6.25;2.60;;;9.80;98.20;;;;;;5053030;28;20036;-89
2022/05/16 02:25:52;;;;;;;4.70;2.58;;;9.70;98.50;;;;;;5054595;28;20036;-89
2022/05/16 02:28:19;;;;;;;3.72;2.50;;;9.70;98.80;;;;;;5054157;28;20029;-87
2022/05/16 02:30:46;;;;;;;4.53;2.65;;;9.80;98.80;;;;;;5053671;28;20381;-86
2022/05/16 02:33:13;;;;;;;5.57;2.58;;;9.80;98.70;;;;;;5052912;28;20037;-86
2022/05/16 02:35:39;;;;;;;5.43;2.50;;;9.80;99.00;;;;;;5057400;28;20045;-87
2022/05/16 02:38:07;;;;;;;3.30;2.20;;;9.80;99.00;;;;;;5062374;28;20028;-87
2022/05/16 02:40:34;;;;;;;5.93;2.63;;;9.70;99.10;;;;;;5067360;28;20534;-89
2022/05/16 02:43:00;;;;;;;3.75;2.58;;;9.70;99.40;;;;;;5076149;28;20029;-89
2022/05/16 02:45:28;;;;;;;5.18;2.88;;;9.70;99.40;;;;;;5076890;28;20024;-89
2022/05/16 02:47:54;;;;;;;4.00;3.00;;;9.70;99.60;;;;;;5076417;28;20048;-86
2022/05/16 02:50:23;;;;;;;3.33;2.78;;;9.60;99.80;;;;;;5076540;28;20020;-86
2022/05/16 02:52:52;;;;;;;4.22;2.40;;;9.60;99.90;;;;;;5076247;28;20044;-86
2022/05/16 02:55:17;;;;;;;7.10;3.00;;;9.60;99.90;;;;;;5076383;28;20471;-86
2022/05/16 02:57:43;;;;;;;5.00;2.40;;;9.60;99.90;;;;;;5076362;28;20073;-86
2022/05/16 03:00:10;;;;;;;4.43;2.67;;;9.50;99.90;;;;;;5077307;28;20043;-86
2022/05/16 03:02:36;;;;;;;3.35;2.90;;;9.50;99.90;;;;;;5076184;28;20024;-86
2022/05/16 03:05:03;;;;;;;7.95;3.13;;;9.50;99.90;;;;;;5076165;28;20067;-86
2022/05/16 03:07:29;;;;;;;7.20;3.42;;;9.50;99.90;;;;;;5076670;28;20028;-86
2022/05/16 03:09:55;;;;;;;6.53;2.97;;;9.50;99.90;;;;;;5076052;28;20030;-86
2022/05/16 03:12:20;;;;;;;6.45;3.42;;;9.50;99.90;;;;;;5077449;28;20020;-86
2022/05/16 03:14:46;;;;;;;6.32;3.22;;;9.50;99.90;;;;;;5077087;28;20016;-86
2022/05/16 03:17:12;;;;;;;8.23;3.53;;;9.50;99.90;;;;;;5076978;28;20053;-86
2022/05/16 03:19:38;;;;;;;6.63;4.18;;;9.60;99.90;;;;;;5075863;28;20549;-86
2022/05/16 03:22:05;;;;;;;19.88;10.10;;;9.70;99.90;;;;;;5075955;28;20024;-86
2022/05/16 03:24:32;;;;;;;13.63;7.07;;;9.70;99.90;;;;;;5075814;28;20020;-86
2022/05/16 03:26:58;;;;;;;12.70;4.90;;;9.80;99.90;;;;;;5076809;28;20032;-87
2022/05/16 03:29:25;;;;;;;5.65;3.70;;;9.80;99.90;;;;;;5075960;28;20363;-87
2022/05/16 03:31:50;;;;;;;7.68;3.78;;;9.90;99.90;;;;;;5075781;28;20020;-86
2022/05/16 03:34:16;;;;;;;6.22;3.40;;;10.00;99.90;;;;;;5075619;28;20158;-86
2022/05/16 03:36:42;;;;;;;5.60;3.20;;;10.10;99.90;;;;;;5075766;28;20127;-87
2022/05/16 03:41:52;;;;;;;7.38;3.60;;;10.40;99.90;;;;;;5077009;28;20078;-87
2022/05/16 03:44:19;;;;;;;9.93;3.88;;;10.60;99.90;;;;;;5076686;28;20028;-87
2022/05/16 03:46:45;;;;;;;8.45;3.60;;;10.70;99.90;;;;;;5075313;28;20032;-86
2022/05/16 03:49:11;;;;;;;13.07;4.13;;;10.70;99.90;;;;;;5075319;28;20029;-86
2022/05/16 03:51:37;;;;;;;7.57;3.63;;;10.90;99.90;;;;;;5075324;28;20021;-86
2022/05/16 03:54:04;;;;;;;6.22;3.45;;;11.00;99.90;;;;;;5073868;28;20042;-86
2022/05/16 03:56:30;;;;;;;7.40;3.67;;;11.10;99.90;;;;;;5063879;28;20079;-87
2022/05/16 03:58:57;;;;;;;8.57;3.67;;;11.20;99.90;;;;;;5063459;28;20101;-87
2022/05/16 04:01:24;;;;;;;7.38;3.08;;;11.20;99.90;;;;;;5066711;28;20058;-88
2022/05/16 04:03:51;;;;;;;6.90;3.40;;;11.30;99.90;;;;;;5076173;28;20397;-87
2022/05/16 04:06:18;;;;;;;10.13;3.60;;;11.50;99.90;;;;;;5072904;28;20024;-86
2022/05/16 04:08:45;;;;;;;6.75;3.30;;;11.50;99.90;;;;;;5065514;28;20111;-87
2022/05/16 04:11:15;;;;;;;5.22;2.88;;;11.60;99.90;;;;;;5064032;28;20024;-87
2022/05/16 04:13:41;;;;;;;5.60;3.60;;;11.70;99.90;;;;;;5069288;28;20016;-88
2022/05/16 04:16:07;;;;;;;6.15;3.50;;;11.70;99.60;;;;;;5074943;28;20080;-87
2022/05/16 04:18:33;;;;;;;7.15;3.35;;;11.90;99.20;;;;;;5074939;28;20028;-86
2022/05/16 04:21:00;;;;;;;5.18;3.47;;;11.90;99.20;;;;;;5075926;28;20025;-87
2022/05/16 04:23:25;;;;;;;6.65;3.33;;;12.00;99.30;;;;;;5074668;28;20024;-86
2022/05/16 04:25:51;;;;;;;4.82;3.08;;;12.10;98.80;;;;;;5071191;28;20018;-86
2022/05/16 04:28:17;;;;;;;8.98;3.58;;;12.20;98.60;;;;;;5063623;28;20021;-88
2022/05/16 04:30:43;;;;;;;5.75;2.85;;;12.40;97.80;;;;;;5058633;28;20018;-87
2022/05/16 04:33:09;;;;;;;4.93;3.03;;;12.50;97.60;;;;;;5060015;28;20035;-85
2022/05/16 04:35:36;;;;;;;6.25;3.05;;;12.60;96.80;;;;;;5055914;28;20083;-87
2022/05/16 04:38:03;;;;;;;9.63;3.38;;;12.70;96.10;;;;;;5074398;28;20036;-87
2022/05/16 04:40:29;;;;;;;6.80;2.75;;;12.80;96.10;;;;;;5074343;28;20020;-86
2022/05/16 04:42:55;;;;;;;7.07;3.33;;;12.90;96.00;;;;;;5074245;28;20031;-85
2022/05/16 04:45:25;;;;;;;8.48;3.15;;;13.10;96.00;;;;;;5075615;28;20048;-86
2022/05/16 04:47:57;;;;;;;5.47;2.95;;;13.20;95.20;;;;;;5073765;28;20021;-86
2022/05/16 04:50:27;;;;;;;8.13;2.92;;;13.30;93.80;;;;;;5075174;28;20040;-87
2022/05/16 04:52:53;;;;;;;9.38;3.25;;;13.40;93.90;;;;;;5073575;28;20052;-85
2022/05/16 04:55:20;;;;;;;6.57;2.72;;;13.50;93.60;;;;;;5073626;28;20478;-87
2022/05/16 04:57:46;;;;;;;4.75;2.67;;;13.60;92.70;;;;;;5073476;28;20028;-85
2022/05/16 05:00:14;;;;;;;5.07;2.90;;;13.70;92.90;;;;;;5073403;28;20390;-86
2022/05/16 05:02:40;;;;;;;5.88;2.70;;;13.80;92.10;;;;;;5074562;28;20029;-86
2022/05/16 05:05:07;;;;;;;6.30;2.80;;;13.90;91.80;;;;;;5072149;28;20116;-85
2022/05/16 05:07:35;;;;;;;7.53;3.15;;;13.90;91.90;;;;;;5070985;28;20073;-87
2022/05/16 05:15:29;;;;;;;5.93;2.72;;;14.00;90.50;;;;;;5072542;28;20031;-84
2022/05/16 05:17:54;;;;;;;8.20;2.70;;;14.20;90.70;;;;;;5070682;28;20051;-86
2022/05/16 05:20:21;;;;;;;4.82;2.22;;;14.20;89.60;;;;;;5072132;28;20024;-84
2022/05/16 05:22:48;;;;;;;3.35;2.05;;;14.40;89.40;;;;;;5073219;28;20032;-85
2022/05/16 05:25:17;;;;;;;5.15;2.40;;;14.50;87.10;;;;;;5074618;28;20024;-86
2022/05/16 05:27:45;;;;;;;5.38;2.58;;;14.50;85.60;;;;;;5073117;28;20467;-86
2022/05/16 05:30:14;;;;;;;5.97;2.38;;;14.60;85.50;;;;;;5073211;28;20033;-86
2022/05/16 05:32:39;;;;;;;2.65;2.05;;;14.70;83.30;;;;;;5073242;28;20029;-85
2022/05/16 05:35:06;;;;;;;5.38;2.50;;;14.80;81.50;;;;;;5072963;28;20505;-86
2022/05/16 05:37:33;;;;;;;4.35;2.30;;;14.80;81.70;;;;;;5073264;28;20032;-86
2022/05/16 05:40:01;;;;;;;5.95;2.00;;;14.90;81.20;;;;;;5074445;28;20024;-87
2022/05/16 05:42:30;;;;;;;6.05;2.22;;;15.00;80.20;;;;;;5073286;28;20108;-86
2022/05/16 05:44:57;;;;;;;3.88;2.03;;;15.10;77.70;;;;;;5073147;28;20047;-87
2022/05/16 05:47:23;;;;;;;3.55;2.10;;;15.10;78.40;;;;;;5074238;28;20032;-86
2022/05/16 05:49:49;;;;;;;4.15;2.05;;;15.30;77.50;;;;;;5072900;28;20021;-86
2022/05/16 05:52:17;;;;;;;5.53;2.35;;;15.40;77.10;;;;;;5073117;28;20379;-86
2022/05/16 05:54:44;;;;;;;5.75;2.63;;;15.40;75.50;;;;;;5073157;28;20378;-87
2022/05/16 05:57:10;;;;;;;3.25;2.17;;;15.40;76.10;;;;;;5072362;28;20074;-87
2022/05/16 05:59:36;;;;;;;3.80;2.00;;;15.40;76.70;;;;;;5072316;28;20028;-87
2022/05/16 06:02:03;;;;;;;2.60;1.95;;;15.60;74.00;;;;;;5072915;28;20031;-88
2022/05/16 06:04:29;;;;;;;1.80;1.20;;;15.60;70.00;;;;;;5073037;28;20040;-89
2022/05/16 06:06:54;;;;;;;1.88;1.50;;;15.60;67.70;;;;;;5072836;28;20024;-88
2022/05/16 06:09:20;;;;;;;2.67;1.50;;;15.60;67.70;;;;;;5073157;28;20724;-88
2022/05/16 06:11:48;;;;;;;3.47;1.83;;;15.70;68.50;;;;;;5072814;28;20025;-89
2022/05/16 06:14:13;;;;;;;2.35;1.52;;;15.80;69.60;;;;;;5073103;28;20078;-88
2022/05/16 06:16:40;;;;;;;4.00;1.50;;;15.70;68.90;;;;;;5074510;28;20439;-87
2022/05/16 06:19:08;;;;;;;3.35;1.50;;;15.80;68.10;;;;;;5078411;28;20075;-87
2022/05/16 06:21:35;;;;;;;3.33;1.83;;;15.90;69.10;;;;;;5076984;28;20031;-88
2022/05/16 06:24:01;;;;;;;3.17;1.50;;;16.00;69.40;;;;;;5077954;28;20115;-88
2022/05/16 06:26:28;;;;;;;2.33;1.58;;;16.00;70.00;;;;;;5078334;28;20023;-90
2022/05/16 06:28:55;;;;;;;4.90;1.23;;;16.10;68.30;;;;;;5076846;28;20025;-85
2022/05/16 06:31:21;;;;;;;1.50;1.40;;;16.10;64.50;;;;;;5077696;28;20036;-88
2022/05/16 06:33:47;;;;;;;1.95;1.42;;;16.30;63.90;;;;;;5077969;28;20029;-88
2022/05/16 06:36:15;;;;;;;1.23;1.00;;;16.30;64.80;;;;;;5076485;28;20059;-90
2022/05/16 06:38:41;;;;;;;2.85;1.27;;;16.40;63.50;;;;;;5077611;28;20104;-88
2022/05/16 06:41:07;;;;;;;5.40;1.30;;;16.30;62.90;;;;;;5076475;28;20524;-90
2022/05/16 06:43:34;;;;;;;2.17;0.98;;;16.30;62.80;;;;;;5077508;28;20020;-90
2022/05/16 06:46:02;;;;;;;1.75;0.93;;;16.30;59.50;;;;;;5076629;28;20020;-88
2022/05/16 06:48:28;;;;;;;1.85;1.25;;;16.30;58.40;;;;;;5076720;28;20079;-88
2022/05/16 06:50:55;;;;;;;1.65;1.20;;;16.40;59.30;;;;;;5076920;28;20048;-89
2022/05/16 06:53:28;;;;;;;1.30;1.00;;;16.40;59.80;;;;;;5076795;28;20021;-89
2022/05/16 06:55:55;;;;;;;2.00;1.50;;;16.50;59.90;;;;;;5076588;28;20029;-90
2022/05/16 06:58:20;;;;;;;1.85;1.10;;;16.50;60.80;;;;;;5076317;28;20025;-89
2022/05/16 07:00:47;;;;;;;2.25;1.10;;;16.60;60.90;;;;;;5076574;28;20031;-89
2022/05/16 07:03:13;;;;;;;3.17;1.20;;;16.70;61.00;;;;;;5076239;28;20116;-90
2022/05/16 07:05:39;;;;;;;4.03;1.27;;;16.70;59.90;;;;;;5077460;28;20528;-89
2022/05/16 07:08:06;;;;;;;2.22;1.67;;;16.70;60.70;;;;;;5076061;28;20123;-90
2022/05/16 07:10:32;;;;;;;3.03;1.40;;;16.70;61.30;;;;;;5076076;28;20134;-92
2022/05/16 07:12:59;;;;;;;3.90;1.48;;;16.80;61.20;;;;;;5076328;28;20027;-89
2022/05/16 07:15:25;;;;;;;3.13;1.45;;;16.80;59.30;;;;;;5076250;28;20020;-88
2022/05/16 07:17:50;;;;;;;2.58;1.10;;;16.90;59.90;;;;;;5077233;28;20491;-90
2022/05/16 07:20:17;;;;;;;3.90;1.23;;;16.90;60.30;;;;;;5077163;28;20028;-90
2022/05/16 07:22:45;;;;;;;1.98;1.20;;;17.00;60.00;;;;;;5075879;28;20053;-85
2022/05/16 07:25:12;;;;;;;1.77;1.33;;;17.10;59.10;;;;;;5076998;28;20035;-88
2022/05/16 07:27:56;;;;;;;1.70;1.35;;;17.20;58.30;;;;;;5077120;28;20028;-90
2022/05/16 07:30:24;;;;;;;1.67;1.40;;;17.30;58.90;;;;;;5077142;28;20052;-87
2022/05/16 07:32:50;;;;;;;2.67;1.27;;;17.30;58.90;;;;;;5076761;28;20348;-88
2022/05/16 07:35:25;;;;;;;1.77;1.10;;;17.30;59.70;;;;;;5075572;28;20074;-89
2022/05/16 07:37:53;;;;;;;1.80;0.70;;;17.40;59.20;;;;;;5075866;28;20024;-88
2022/05/16 07:40:24;;;;;;;1.15;0.73;;;17.50;59.40;;;;;;5075538;28;20031;-88
2022/05/16 07:42:50;;;;;;;1.60;1.25;;;17.60;58.90;;;;;;5075273;28;20445;-86
2022/05/16 07:45:17;;;;;;;4.05;1.10;;;17.70;58.90;;;;;;5075201;28;20447;-86
2022/05/16 07:47:43;;;;;;;3.83;1.33;;;17.80;58.50;;;;;;5075013;28;20418;-85
2022/05/16 07:50:09;;;;;;;2.00;0.90;;;17.80;56.90;;;;;;5075306;28;20020;-88
2022/05/16 07:52:36;;;;;;;1.92;1.42;;;17.90;56.80;;;;;;5075151;28;20020;-87
2022/05/16 07:55:03;;;;;;;1.73;0.80;;;17.80;57.40;;;;;;5075198;28;20077;-90
2022/05/16 07:57:30;;;;;;;1.48;0.82;;;17.80;57.10;;;;;;5074935;28;20028;-90
2022/05/16 07:59:56;;;;;;;2.50;0.68;;;18.00;55.90;;;;;;5075508;28;20031;-88
2022/05/16 08:02:22;;;;;;;1.13;0.77;;;18.30;55.80;;;;;;5075944;28;20025;-87
2022/05/16 08:04:48;;;;;;;0.77;0.70;;;18.50;55.40;;;;;;5074892;28;20395;-86
2022/05/16 08:07:13;;;;;;;1.00;0.80;;;18.50;53.70;;;;;;5075794;28;20025;-86
2022/05/16 08:12:30;;;;;;;2.80;0.77;;;18.20;53.90;;;;;;5075828;28;20028;-86
2022/05/16 08:14:56;;;;;;;2.92;0.80;;;18.30;53.70;;;;;;5075558;28;20023;-84
2022/05/16 08:17:22;;;;;;;2.92;1.10;;;18.50;54.30;;;;;;5074351;28;20035;-85
2022/05/16 08:19:49;;;;;;;0.90;0.90;;;18.70;54.10;;;;;;5074544;28;20367;-86
2022/05/16 08:22:15;;;;;;;1.33;0.90;;;18.60;53.70;;;;;;5075509;28;20024;-84
2022/05/16 08:24:41;;;;;;;2.03;0.98;;;18.60;53.60;;;;;;5074427;28;20423;-84
2022/05/16 08:27:07;;;;;;;3.60;1.05;;;18.50;54.20;;;;;;5073978;28;20056;-85
2022/05/16 08:29:33;;;;;;;1.63;1.10;;;18.60;55.40;;;;;;5074169;28;20070;-85
2022/05/16 08:31:59;;;;;;;2.05;1.02;;;18.70;55.00;;;;;;5074026;28;20025;-87
2022/05/16 08:34:25;;;;;;;1.98;0.80;;;19.00;54.60;;;;;;5075624;28;20021;-85
2022/05/16 08:39:52;;;;;;;1.45;1.30;;;18.90;54.80;;;;;;5074494;28;20544;-84
2022/05/16 08:42:31;;;;;;;2.30;1.13;;;19.00;55.50;;;;;;5075121;28;20466;-87
2022/05/16 08:45:01;;;;;;;1.08;0.73;;;19.00;55.00;;;;;;5073755;28;20032;-85
2022/05/16 08:47:35;;;;;;;3.58;1.38;;;19.20;55.30;;;;;;5075026;28;20024;-89
2022/05/16 08:50:08;;;;;;;3.97;0.98;;;19.60;54.90;;;;;;5074073;28;20491;-85
2022/05/16 08:52:50;;;;;;;2.03;1.15;;;19.90;53.90;;;;;;5073858;28;20046;-89
2022/05/16 08:55:28;;;;;;;2.40;0.80;;;20.00;51.70;;;;;;5074224;28;20025;-88
2022/05/16 08:57:59;;;;;;;1.52;1.00;;;20.00;52.40;;;;;;5075206;28;20021;-91
2022/05/16 09:00:33;;;;;;;1.65;1.05;;;19.90;52.00;;;;;;5075331;28;20044;-87
2022/05/16 09:03:02;;;;;;;1.90;1.05;;;19.90;51.90;;;;;;5073620;28;20032;-87
2022/05/16 09:05:36;;;;;;;2.00;1.20;;;20.00;53.00;;;;;;5073678;28;20082;-86
2022/05/16 09:08:08;;;;;;;1.58;0.82;;;20.20;54.10;;;;;;5073677;28;20123;-87
2022/05/16 09:10:58;;;;;;;1.10;0.73;;;20.10;52.10;;;;;;5074804;28;20025;-88
2022/05/16 09:13:37;;;;;;;4.65;2.30;;;20.30;52.60;;;;;;5074729;28;20016;-85
2022/05/16 09:16:11;;;;;;;4.60;1.83;;;20.20;53.00;;;;;;5073435;28;20074;-85
2022/05/16 09:18:54;;;;;;;1.88;1.35;;;19.80;53.40;;;;;;5073263;28;20032;-85
2022/05/16 09:21:42;;;;;;;4.40;1.55;;;19.70;53.70;;;;;;5073197;28;20070;-85
2022/05/16 09:24:44;;;;;;;2.33;1.30;;;19.70;53.40;;;;;;5073025;28;20123;-86
2022/05/16 09:28:34;;;;;;;2.28;1.23;;;19.60;54.20;;;;;;5073062;28;20020;-88
2022/05/16 09:30:05;;;;;;;3.08;1.00;;;19.70;53.90;;;;;;5074236;28;20021;-86
2022/05/16 09:32:35;;;;;;;1.60;1.20;;;19.90;53.60;;;;;;5072898;28;20029;-85
2022/05/16 09:35:01;;;;;;;3.17;1.65;;;19.80;53.80;;;;;;5073252;28;20055;-86
2022/05/16 09:37:28;;;;;;;2.58;1.30;;;19.60;54.70;;;;;;5074185;28;20028;-86
2022/05/16 09:39:54;;;;;;;3.95;1.42;;;19.50;54.90;;;;;;5074354;28;20407;-86
2022/05/16 09:42:26;;;;;;;4.00;1.25;;;19.50;54.80;;;;;;5073006;28;20032;-86
2022/05/16 09:45:09;;;;;;;2.33;1.58;;;19.60;54.80;;;;;;5074137;28;20048;-86
2022/05/16 09:47:41;;;;;;;0.93;0.80;;;19.80;54.80;;;;;;5073086;28;20082;-86
2022/05/16 09:50:20;;;;;;;2.28;1.20;;;20.10;53.60;;;;;;5073155;28;20052;-86
2022/05/16 09:53:07;;;;;;;4.03;1.50;;;20.20;53.90;;;;;;5073741;28;20099;-87
2022/05/16 09:55:59;;;;;;;1.85;1.30;;;20.50;52.30;;;;;;5074407;28;20104;-88
2022/05/16 09:58:33;;;;;;;2.25;1.92;;;20.50;50.30;;;;;;5074376;28;20059;-92
2022/05/16 10:01:03;;;;;;;2.13;1.35;;;20.50;51.10;;;;;;5073336;28;20025;-92
2022/05/16 10:03:47;;;;;;;0.88;0.88;;;20.50;52.00;;;;;;5073385;28;20371;-90
2022/05/16 10:06:54;;;;;;;2.92;0.93;;;20.50;51.60;;;;;;5074538;28;20028;-91
2022/05/16 10:09:29;;;;;;;2.40;0.90;;;20.20;51.40;;;;;;5064141;28;20055;-87
2022/05/16 10:11:57;;;;;;;2.65;1.10;;;20.20;51.90;;;;;;5072754;28;20020;-88
2022/05/16 10:14:23;;;;;;;4.55;1.02;;;20.10;51.90;;;;;;5073086;28;20078;-92
2022/05/16 10:16:51;;;;;;;1.88;1.13;;;20.10;52.30;;;;;;5073469;28;20032;-91
2022/05/16 10:19:26;;;;;;;5.20;1.45;;;20.20;52.50;;;;;;5074221;28;20029;-93
2022/05/16 10:22:05;;;;;;;4.20;1.25;;;20.20;52.30;;;;;;5073050;28;20028;-92
2022/05/16 10:24:34;;;;;;;3.85;1.30;;;20.50;52.50;;;;;;5074230;28;20435;-92
2022/05/16 10:27:08;;;;;;;3.63;1.37;;;20.70;52.00;;;;;;5073330;28;20079;-92
2022/05/16 10:29:38;;;;;;;2.60;1.40;;;20.90;52.00;;;;;;5074250;28;20029;-95
2022/05/16 10:35:09;;;;;;;6.15;1.30;;;21.00;51.30;;;;;;5074095;28;20063;-89
2022/05/16 10:37:40;;;;;;;6.28;1.40;;;21.10;51.60;;;;;;5072871;28;20082;-92
2022/05/16 10:40:15;;;;;;;2.30;1.30;;;21.30;51.70;;;;;;5072961;28;20036;-91
2022/05/16 10:42:52;;;;;;;2.35;1.20;;;21.50;52.10;;;;;;5072917;28;20021;-90
2022/05/16 10:45:20;;;;;;;3.22;1.40;;;21.50;51.30;;;;;;5072638;28;20056;-89
2022/05/16 10:48:00;;;;;;;2.53;1.27;;;21.60;51.40;;;;;;5073974;28;20025;-89
2022/05/16 10:50:43;;;;;;;2.00;1.38;;;21.80;51.00;;;;;;5072794;28;20531;-87
2022/05/16 10:53:23;;;;;;;5.40;1.20;;;21.90;51.10;;;;;;5074031;28;20025;-88
2022/05/16 10:55:59;;;;;;;1.63;1.00;;;21.80;49.90;;;;;;5072744;28;20028;-91
2022/05/16 10:59:07;;;;;;;1.10;0.90;;;21.70;50.60;;;;;;5073281;28;20051;-92
2022/05/16 11:01:42;;;;;;;1.90;0.95;;;21.70;50.00;;;;;;5073545;28;20052;-86
2022/05/16 11:04:29;;;;;;;3.88;1.50;;;21.70;50.00;;;;;;5077211;28;20395;-87
2022/05/16 11:07:10;;;;;;;2.35;1.13;;;21.60;51.20;;;;;;5076290;28;20028;-90
2022/05/16 11:09:45;;;;;;;3.42;1.05;;;21.50;50.50;;;;;;5077118;28;20070;-88
2022/05/16 11:12:34;;;;;;;4.45;1.13;;;21.60;50.60;;;;;;5076443;28;20566;-88
2022/05/16 11:15:36;;;;;;;3.90;1.52;;;21.60;49.80;;;;;;5076496;28;20017;-88
2022/05/16 11:18:20;;;;;;;8.63;1.40;;;21.60;50.20;;;;;;5076176;28;20032;-94
2022/05/16 11:21:07;;;;;;;1.20;1.00;;;21.50;48.70;;;;;;5077329;28;20031;-90
2022/05/16 11:23:45;;;;;;;1.20;1.00;;;21.40;48.50;;;;;;5076159;28;20108;-85
2022/05/16 11:26:31;;;;;;;2.80;0.73;;;21.50;48.80;;;;;;5075959;28;20425;-86
2022/05/16 11:29:20;;;;;;;3.03;0.95;;;21.70;48.10;;;;;;5075727;28;20063;-87
2022/05/16 11:31:58;;;;;;;2.60;1.05;;;21.80;47.20;;;;;;5075840;28;20020;-88
2022/05/16 11:34:44;;;;;;;2.50;0.80;;;21.80;47.60;;;;;;5075638;28;20029;-90
2022/05/16 11:37:24;;;;;;;1.60;1.00;;;21.50;47.10;;;;;;5076817;28;20094;-87
2022/05/16 11:40:17;;;;;;;1.52;1.00;;;21.10;47.20;;;;;;5076929;28;20086;-90
2022/05/16 11:42:55;;;;;;;2.60;1.00;;;20.90;47.10;;;;;;5075853;28;20485;-95
2022/05/16 11:45:29;;;;;;;3.97;1.00;;;21.00;47.00;;;;;;5076835;28;20024;-87
2022/05/16 11:48:23;;;;;;;1.38;0.88;;;21.10;47.00;;;;;;5075467;28;20020;-87
2022/05/16 11:51:19;;;;;;;0.77;0.73;;;21.50;47.50;;;;;;5075694;28;20031;-89
2022/05/16 11:53:48;;;;;;;1.88;0.90;;;22.20;46.20;;;;;;5042011;28;20037;-88
2022/05/16 12:02:43;;;;;;;1.33;0.70;;;22.00;44.60;;;;;;5076510;28;20085;-87
2022/05/16 12:05:28;;;;;;;1.63;1.10;;;21.90;45.50;;;;;;5072348;28;20032;-90
2022/05/16 12:08:29;;;;;;;2.65;1.15;;;21.80;45.80;;;;;;5076319;28;20579;-88
2022/05/16 12:10:57;;;;;;;;;;;21.80;46.30;;;;;;5075765;28;20387;-93
2022/05/16 12:13:29;;;;;;;10.13;1.85;;;21.20;46.10;;;;;;5075535;28;19905;-88
2022/05/16 12:16:15;;;;;;;1.92;1.17;;;21.10;47.30;;;;;;5075783;28;20017;-91
2022/05/16 12:18:45;;;;;;;3.13;1.15;;;21.20;46.60;;;;;;5074794;28;20031;-93
2022/05/16 12:21:20;;;;;;;2.13;1.27;;;21.30;46.90;;;;;;5074860;28;20033;-87
2022/05/16 12:23:49;;;;;;;3.28;1.20;;;21.40;46.70;;;;;;5076222;28;20028;-91
2022/05/16 12:26:27;;;;;;;2.85;1.20;;;21.40;46.50;;;;;;5074891;28;20028;-89
2022/05/16 12:29:14;;;;;;;2.45;0.93;;;21.50;46.60;;;;;;5074804;28;20029;-87
2022/05/16 12:31:52;;;;;;;2.92;1.10;;;21.40;46.80;;;;;;5074829;28;20032;-88
2022/05/16 12:34:50;;;;;;;2.25;0.93;;;21.40;46.50;;;;;;5075901;28;20103;-87
2022/05/16 12:37:19;;;;;;;1.35;1.00;;;21.60;46.30;;;;;;5031868;28;20044;-88
2022/05/16 12:40:06;;;;;;;2.22;1.05;;;22.40;46.60;;;;;;5075759;28;20025;-94
2022/05/16 12:42:50;;;;;;;3.10;1.02;;;23.40;44.40;;;;;;5075793;28;20028;-88
2022/05/16 12:45:54;;;;;;;2.15;1.02;;;23.70;44.00;;;;;;5074322;28;20027;-90
2022/05/16 12:48:46;;;;;;;4.32;1.00;;;23.60;44.30;;;;;;5075852;28;20029;-92
2022/05/16 12:51:36;;;;;;;2.15;0.90;;;23.80;45.30;;;;;;5069412;28;20071;-85
2022/05/16 12:54:40;;;;;;;2.35;1.38;;;24.30;43.70;;;;;;5074567;28;20027;-88
2022/05/16 12:57:47;;;;;;;1.08;0.98;;;24.50;43.80;;;;;;5074227;28;20123;-91
2022/05/16 13:00:23;;;;;;;4.20;1.10;;;23.70;43.10;;;;;;5026123;28;20028;-89
2022/05/16 13:03:39;;;;;;;1.52;1.05;;;23.10;43.80;;;;;;5074248;28;20029;-87
2022/05/16 13:06:19;;;;;;;1.25;0.80;;;22.70;45.20;;;;;;4993963;28;20034;-86
2022/05/16 13:08:49;;;;;;;3.15;1.23;;;23.00;46.30;;;;;;4977413;28;20121;-87
2022/05/16 13:11:39;;;;;;;2.75;1.13;;;23.50;45.70;;;;;;5048299;28;20052;-94
2022/05/16 13:14:08;;;;;;;;;;;23.40;44.60;;;;;;5075515;28;20110;-89
2022/05/16 13:16:55;;;;;;;0.88;0.85;;;23.30;45.60;;;;;;5073816;28;19911;-91
2022/05/16 13:19:24;;;;;;;2.22;0.95;;;23.00;45.50;;;;;;5073796;28;20020;-93
2022/05/16 13:21:55;;;;;;;3.40;1.15;;;22.70;45.90;;;;;;5073775;28;20100;-92
2022/05/16 13:24:23;;;;;;;1.38;1.10;;;22.70;46.30;;;;;;5073384;28;20025;-95
2022/05/16 13:29:38;;;;;;;1.73;1.00;;;22.60;46.40;;;;;;5075643;28;20027;-92
2022/05/16 13:32:14;;;;;;;1.60;0.95;;;22.30;45.90;;;;;;5073647;28;20028;-92
2022/05/16 13:34:56;;;;;;;2.97;0.90;;;22.10;46.50;;;;;;5074654;28;20044;-89
2022/05/16 13:37:23;;;;;;;2.03;1.13;;;21.90;46.40;;;;;;5073862;28;20032;-91
2022/05/16 13:39:55;;;;;;;4.35;1.40;;;21.80;46.40;;;;;;5074076;28;20028;-92
2022/05/16 13:42:22;;;;;;;3.20;1.50;;;21.70;46.80;;;;;;5074825;28;20040;-93
2022/05/16 13:44:49;;;;;;;3.88;1.42;;;21.60;46.80;;;;;;5074809;28;20086;-93